sensor_id;sensor_type;location;lat;lon;timestamp;temperature;humidity
23703;DHT22;12030;50.376;8.762;2022-12-07T00:01:33;4.30;99.90
23703;DHT22;12030;50.376;8.762;2022-12-07T00:04:01;4.30;99.90
23703;DHT22;12030;50.376;8.762;2022-12-07T00:06:31;4.20;99.90
23703;DHT22;12030;50.376;8.762;2022-12-07T00:08:57;4.10;99.90
23703;DHT22;12030;50.376;8.762;2022-12-07T00:11:23;4.10;99.90
23703;DHT22;12030;50.376;8.762;2022-12-07T00:13:54;4.10;99.90
23703;DHT22;12030;50.376;8.762;2022-12-07T00:16:22;4.20;99.90
23703;DHT22;12030;50.376;8.762;2022-12-07T00:18:48;4.20;99.90
23703;DHT22;12030;50.376;8.762;2022-12-07T00:21:19;4.20;99.90
23703;DHT22;12030;50.376;8.762;2022-12-07T00:23:47;4.10;99.90
23703;DHT22;12030;50.376;8.762;2022-12-07T00:26:23;4.20;99.90
23703;DHT22;12030;50.376;8.762;2022-12-07T00:28:52;4.20;99.90
23703;DHT22;12030;50.376;8.762;2022-12-07T00:31:20;4.20;99.90
23703;DHT22;12030;50.376;8.762;2022-12-07T00:33:46;4.30;99.90
23703;DHT22;12030;50.376;8.762;2022-12-07T00:36:14;4.20;99.90
23703;DHT22;12030;50.376;8.762;2022-12-07T00:38:40;4.20;99.90
23703;DHT22;12030;50.376;8.762;2022-12-07T00:41:13;4.20;99.90
23703;DHT22;12030;50.376;8.762;2022-12-07T00:43:40;4.20;99.90
23703;DHT22;12030;50.376;8.762;2022-12-07T00:46:06;4.20;99.90
23703;DHT22;12030;50.376;8.762;2022-12-07T00:48:32;4.20;99.90
23703;DHT22;12030;50.376;8.762;2022-12-07T00:50:58;4.20;99.90
23703;DHT22;12030;50.376;8.762;2022-12-07T00:53:24;4.20;99.90
23703;DHT22;12030;50.376;8.762;2022-12-07T00:55:50;4.20;99.90
23703;DHT22;12030;50.376;8.762;2022-12-07T00:58:15;4.20;99.90
23703;DHT22;12030;50.376;8.762;2022-12-07T01:00:42;4.30;99.90
23703;DHT22;12030;50.376;8.762;2022-12-07T01:03:10;4.30;99.90
23703;DHT22;12030;50.376;8.762;2022-12-07T01:05:36;4.30;99.90
23703;DHT22;12030;50.376;8.762;2022-12-07T01:08:02;4.30;99.90
23703;DHT22;12030;50.376;8.762;2022-12-07T01:10:28;4.30;99.90
23703;DHT22;12030;50.376;8.762;2022-12-07T01:12:55;4.30;99.90
23703;DHT22;12030;50.376;8.762;2022-12-07T01:15:21;4.40;99.90
23703;DHT22;12030;50.376;8.762;2022-12-07T01:17:47;4.40;99.90
23703;DHT22;12030;50.376;8.762;2022-12-07T01:20:13;4.50;99.90
23703;DHT22;12030;50.376;8.762;2022-12-07T01:22:43;4.60;99.90
23703;DHT22;12030;50.376;8.762;2022-12-07T01:25:10;4.60;99.90
23703;DHT22;12030;50.376;8.762;2022-12-07T01:27:36;4.60;99.90
23703;DHT22;12030;50.376;8.762;2022-12-07T01:30:04;4.60;99.90
23703;DHT22;12030;50.376;8.762;2022-12-07T01:32:30;4.50;99.90
23703;DHT22;12030;50.376;8.762;2022-12-07T01:34:55;4.50;99.90
23703;DHT22;12030;50.376;8.762;2022-12-07T01:37:21;4.40;99.90
23703;DHT22;12030;50.376;8.762;2022-12-07T01:39:51;4.40;99.90
23703;DHT22;12030;50.376;8.762;2022-12-07T01:42:16;4.40;99.90
23703;DHT22;12030;50.376;8.762;2022-12-07T01:47:54;4.40;99.90
23703;DHT22;12030;50.376;8.762;2022-12-07T01:50:21;4.40;99.90
23703;DHT22;12030;50.376;8.762;2022-12-07T01:52:52;4.40;99.90
23703;DHT22;12030;50.376;8.762;2022-12-07T01:55:19;4.50;99.90
23703;DHT22;12030;50.376;8.762;2022-12-07T01:57:48;4.50;99.90
23703;DHT22;12030;50.376;8.762;2022-12-07T02:00:15;4.60;99.90
23703;DHT22;12030;50.376;8.762;2022-12-07T02:02:48;4.50;99.90
23703;DHT22;12030;50.376;8.762;2022-12-07T02:05:17;4.60;99.90
23703;DHT22;12030;50.376;8.762;2022-12-07T02:07:42;4.60;99.90
23703;DHT22;12030;50.376;8.762;2022-12-07T02:10:19;4.60;99.90
23703;DHT22;12030;50.376;8.762;2022-12-07T02:12:48;4.60;99.90
23703;DHT22;12030;50.376;8.762;2022-12-07T02:15:14;4.50;99.90
23703;DHT22;12030;50.376;8.762;2022-12-07T02:29:23;4.60;99.90
23703;DHT22;12030;50.376;8.762;2022-12-07T02:34:50;4.70;99.90
23703;DHT22;12030;50.376;8.762;2022-12-07T02:40:17;4.70;99.90
23703;DHT22;12030;50.376;8.762;2022-12-07T02:42:47;4.70;99.90
23703;DHT22;12030;50.376;8.762;2022-12-07T02:45:18;4.80;99.90
23703;DHT22;12030;50.376;8.762;2022-12-07T02:47:48;4.80;99.90
23703;DHT22;12030;50.376;8.762;2022-12-07T02:50:21;4.80;99.90
23703;DHT22;12030;50.376;8.762;2022-12-07T02:52:47;4.80;99.90
23703;DHT22;12030;50.376;8.762;2022-12-07T02:55:15;4.80;99.90
23703;DHT22;12030;50.376;8.762;2022-12-07T03:00:27;4.80;99.90
23703;DHT22;12030;50.376;8.762;2022-12-07T03:02:54;4.80;99.90
23703;DHT22;12030;50.376;8.762;2022-12-07T03:05:50;4.80;99.90
23703;DHT22;12030;50.376;8.762;2022-12-07T03:10:59;4.80;99.90
23703;DHT22;12030;50.376;8.762;2022-12-07T03:13:41;4.80;99.90
23703;DHT22;12030;50.376;8.762;2022-12-07T03:16:27;4.80;99.90
23703;DHT22;12030;50.376;8.762;2022-12-07T03:18:58;4.80;99.90
23703;DHT22;12030;50.376;8.762;2022-12-07T03:21:27;4.80;99.90
23703;DHT22;12030;50.376;8.762;2022-12-07T03:23:58;4.80;99.90
23703;DHT22;12030;50.376;8.762;2022-12-07T03:26:30;4.70;99.90
23703;DHT22;12030;50.376;8.762;2022-12-07T03:29:01;4.80;99.90
23703;DHT22;12030;50.376;8.762;2022-12-07T03:31:40;4.70;99.90
23703;DHT22;12030;50.376;8.762;2022-12-07T03:34:31;4.70;99.90
23703;DHT22;12030;50.376;8.762;2022-12-07T03:37:05;4.70;99.90
23703;DHT22;12030;50.376;8.762;2022-12-07T03:39:41;4.70;99.90
23703;DHT22;12030;50.376;8.762;2022-12-07T03:42:11;4.70;99.90
23703;DHT22;12030;50.376;8.762;2022-12-07T03:44:38;4.70;99.90
23703;DHT22;12030;50.376;8.762;2022-12-07T03:47:16;4.70;99.90
23703;DHT22;12030;50.376;8.762;2022-12-07T03:49:55;4.70;99.90
23703;DHT22;12030;50.376;8.762;2022-12-07T03:52:26;4.80;99.90
23703;DHT22;12030;50.376;8.762;2022-12-07T03:55:16;4.80;99.90
23703;DHT22;12030;50.376;8.762;2022-12-07T03:57:45;4.80;99.90
23703;DHT22;12030;50.376;8.762;2022-12-07T04:00:13;4.80;99.90
23703;DHT22;12030;50.376;8.762;2022-12-07T04:02:39;4.80;99.90
23703;DHT22;12030;50.376;8.762;2022-12-07T04:05:05;4.80;99.90
23703;DHT22;12030;50.376;8.762;2022-12-07T04:07:31;4.80;99.90
23703;DHT22;12030;50.376;8.762;2022-12-07T04:09:56;4.80;99.90
23703;DHT22;12030;50.376;8.762;2022-12-07T04:12:22;4.80;99.90
23703;DHT22;12030;50.376;8.762;2022-12-07T04:14:48;4.80;99.90
23703;DHT22;12030;50.376;8.762;2022-12-07T04:17:14;4.80;99.90
23703;DHT22;12030;50.376;8.762;2022-12-07T04:19:39;4.80;99.90
23703;DHT22;12030;50.376;8.762;2022-12-07T04:22:05;4.80;99.90
23703;DHT22;12030;50.376;8.762;2022-12-07T04:24:32;4.90;99.90
23703;DHT22;12030;50.376;8.762;2022-12-07T04:26:57;4.90;99.90
23703;DHT22;12030;50.376;8.762;2022-12-07T04:29:23;4.90;99.90
23703;DHT22;12030;50.376;8.762;2022-12-07T04:31:50;4.90;99.90
23703;DHT22;12030;50.376;8.762;2022-12-07T04:34:16;5.00;99.90
23703;DHT22;12030;50.376;8.762;2022-12-07T04:36:42;5.00;99.90
23703;DHT22;12030;50.376;8.762;2022-12-07T04:39:17;5.00;99.90
23703;DHT22;12030;50.376;8.762;2022-12-07T04:41:44;5.00;99.90
23703;DHT22;12030;50.376;8.762;2022-12-07T04:44:09;5.10;99.90
23703;DHT22;12030;50.376;8.762;2022-12-07T04:46:36;5.10;99.90
23703;DHT22;12030;50.376;8.762;2022-12-07T04:49:01;5.10;99.90
23703;DHT22;12030;50.376;8.762;2022-12-07T04:51:28;5.10;99.90
23703;DHT22;12030;50.376;8.762;2022-12-07T04:53:54;5.10;99.90
23703;DHT22;12030;50.376;8.762;2022-12-07T04:56:20;5.10;99.90
23703;DHT22;12030;50.376;8.762;2022-12-07T04:58:48;5.00;99.90
23703;DHT22;12030;50.376;8.762;2022-12-07T05:01:16;5.00;99.90
23703;DHT22;12030;50.376;8.762;2022-12-07T05:03:42;5.00;99.90
23703;DHT22;12030;50.376;8.762;2022-12-07T05:06:09;5.00;99.90
23703;DHT22;12030;50.376;8.762;2022-12-07T05:08:35;5.00;99.90
23703;DHT22;12030;50.376;8.762;2022-12-07T05:11:01;5.00;99.90
23703;DHT22;12030;50.376;8.762;2022-12-07T05:13:27;5.00;99.90
23703;DHT22;12030;50.376;8.762;2022-12-07T05:15:53;5.00;99.90
23703;DHT22;12030;50.376;8.762;2022-12-07T05:18:18;5.00;99.90
23703;DHT22;12030;50.376;8.762;2022-12-07T05:20:45;5.00;99.90
23703;DHT22;12030;50.376;8.762;2022-12-07T05:23:11;5.00;99.90
23703;DHT22;12030;50.376;8.762;2022-12-07T05:25:37;5.00;99.90
23703;DHT22;12030;50.376;8.762;2022-12-07T05:28:03;5.00;99.90
23703;DHT22;12030;50.376;8.762;2022-12-07T05:30:29;5.00;99.90
23703;DHT22;12030;50.376;8.762;2022-12-07T05:32:54;5.00;99.90
23703;DHT22;12030;50.376;8.762;2022-12-07T05:35:20;5.00;99.90
23703;DHT22;12030;50.376;8.762;2022-12-07T05:37:46;5.00;99.90
23703;DHT22;12030;50.376;8.762;2022-12-07T05:40:13;5.00;99.90
23703;DHT22;12030;50.376;8.762;2022-12-07T05:42:39;5.10;99.90
23703;DHT22;12030;50.376;8.762;2022-12-07T05:45:06;5.00;99.90
23703;DHT22;12030;50.376;8.762;2022-12-07T05:47:31;5.00;99.90
23703;DHT22;12030;50.376;8.762;2022-12-07T05:49:57;5.00;99.90
23703;DHT22;12030;50.376;8.762;2022-12-07T05:52:23;5.00;99.90
23703;DHT22;12030;50.376;8.762;2022-12-07T05:54:48;5.10;99.90
23703;DHT22;12030;50.376;8.762;2022-12-07T05:57:14;5.10;99.90
23703;DHT22;12030;50.376;8.762;2022-12-07T05:59:40;5.10;99.90
23703;DHT22;12030;50.376;8.762;2022-12-07T06:02:11;5.10;99.90
23703;DHT22;12030;50.376;8.762;2022-12-07T06:04:39;5.10;99.90
23703;DHT22;12030;50.376;8.762;2022-12-07T06:07:06;5.10;99.90
23703;DHT22;12030;50.376;8.762;2022-12-07T06:09:33;5.10;99.90
23703;DHT22;12030;50.376;8.762;2022-12-07T06:12:00;5.10;99.90
23703;DHT22;12030;50.376;8.762;2022-12-07T06:14:44;5.10;99.90
23703;DHT22;12030;50.376;8.762;2022-12-07T06:17:10;5.10;99.90
23703;DHT22;12030;50.376;8.762;2022-12-07T06:19:36;5.10;99.90
23703;DHT22;12030;50.376;8.762;2022-12-07T06:22:02;5.10;99.90
23703;DHT22;12030;50.376;8.762;2022-12-07T06:24:30;5.10;99.90
23703;DHT22;12030;50.376;8.762;2022-12-07T06:26:55;5.20;99.90
23703;DHT22;12030;50.376;8.762;2022-12-07T06:29:21;5.30;99.90
23703;DHT22;12030;50.376;8.762;2022-12-07T06:31:47;5.30;99.90
23703;DHT22;12030;50.376;8.762;2022-12-07T06:34:16;5.40;99.90
23703;DHT22;12030;50.376;8.762;2022-12-07T06:36:42;5.40;99.90
23703;DHT22;12030;50.376;8.762;2022-12-07T06:39:08;5.40;99.90
23703;DHT22;12030;50.376;8.762;2022-12-07T06:41:35;5.40;99.90
23703;DHT22;12030;50.376;8.762;2022-12-07T06:44:02;5.40;99.90
23703;DHT22;12030;50.376;8.762;2022-12-07T06:46:28;5.40;99.90
23703;DHT22;12030;50.376;8.762;2022-12-07T06:48:53;5.40;99.90
23703;DHT22;12030;50.376;8.762;2022-12-07T06:51:19;5.40;99.90
23703;DHT22;12030;50.376;8.762;2022-12-07T06:53:45;5.30;99.90
23703;DHT22;12030;50.376;8.762;2022-12-07T06:56:10;5.30;99.90
23703;DHT22;12030;50.376;8.762;2022-12-07T06:58:36;5.30;99.90
23703;DHT22;12030;50.376;8.762;2022-12-07T07:01:01;5.30;99.90
23703;DHT22;12030;50.376;8.762;2022-12-07T07:03:27;5.30;99.90
23703;DHT22;12030;50.376;8.762;2022-12-07T07:05:52;5.30;99.90
23703;DHT22;12030;50.376;8.762;2022-12-07T07:08:18;5.30;99.90
23703;DHT22;12030;50.376;8.762;2022-12-07T07:10:43;5.40;99.90
23703;DHT22;12030;50.376;8.762;2022-12-07T07:13:09;5.40;99.90
23703;DHT22;12030;50.376;8.762;2022-12-07T07:15:36;5.40;99.90
23703;DHT22;12030;50.376;8.762;2022-12-07T07:18:02;5.40;99.90
23703;DHT22;12030;50.376;8.762;2022-12-07T07:20:28;5.50;99.90
23703;DHT22;12030;50.376;8.762;2022-12-07T07:22:55;5.50;99.90
23703;DHT22;12030;50.376;8.762;2022-12-07T07:25:21;5.50;99.90
23703;DHT22;12030;50.376;8.762;2022-12-07T07:27:46;5.50;99.90
23703;DHT22;12030;50.376;8.762;2022-12-07T07:30:12;5.50;99.90
23703;DHT22;12030;50.376;8.762;2022-12-07T07:32:38;5.50;99.90
23703;DHT22;12030;50.376;8.762;2022-12-07T07:35:04;5.50;99.90
23703;DHT22;12030;50.376;8.762;2022-12-07T07:37:29;5.50;99.90
23703;DHT22;12030;50.376;8.762;2022-12-07T07:39:55;5.50;99.90
23703;DHT22;12030;50.376;8.762;2022-12-07T07:42:20;5.60;99.90
23703;DHT22;12030;50.376;8.762;2022-12-07T07:44:46;5.60;99.90
23703;DHT22;12030;50.376;8.762;2022-12-07T07:47:12;5.60;99.90
23703;DHT22;12030;50.376;8.762;2022-12-07T07:49:37;5.50;99.90
23703;DHT22;12030;50.376;8.762;2022-12-07T07:52:03;5.40;99.90
23703;DHT22;12030;50.376;8.762;2022-12-07T07:54:30;5.30;99.90
23703;DHT22;12030;50.376;8.762;2022-12-07T07:56:55;5.30;99.90
23703;DHT22;12030;50.376;8.762;2022-12-07T07:59:21;5.30;99.90
23703;DHT22;12030;50.376;8.762;2022-12-07T08:01:46;5.30;99.90
23703;DHT22;12030;50.376;8.762;2022-12-07T08:04:12;5.20;99.90
23703;DHT22;12030;50.376;8.762;2022-12-07T08:06:37;5.20;99.90
23703;DHT22;12030;50.376;8.762;2022-12-07T08:09:03;5.20;99.90
23703;DHT22;12030;50.376;8.762;2022-12-07T08:11:30;5.10;99.90
23703;DHT22;12030;50.376;8.762;2022-12-07T08:13:56;5.10;99.90
23703;DHT22;12030;50.376;8.762;2022-12-07T08:16:21;5.10;99.90
23703;DHT22;12030;50.376;8.762;2022-12-07T08:18:47;5.10;99.90
23703;DHT22;12030;50.376;8.762;2022-12-07T08:21:14;5.10;99.90
23703;DHT22;12030;50.376;8.762;2022-12-07T08:23:40;5.10;99.90
23703;DHT22;12030;50.376;8.762;2022-12-07T08:26:08;5.20;99.90
23703;DHT22;12030;50.376;8.762;2022-12-07T08:28:34;5.20;99.90
23703;DHT22;12030;50.376;8.762;2022-12-07T08:31:11;5.30;99.90
23703;DHT22;12030;50.376;8.762;2022-12-07T08:33:37;5.30;99.90
23703;DHT22;12030;50.376;8.762;2022-12-07T08:36:09;5.40;99.90
23703;DHT22;12030;50.376;8.762;2022-12-07T08:38:36;5.40;99.90
23703;DHT22;12030;50.376;8.762;2022-12-07T08:41:02;5.40;99.90
23703;DHT22;12030;50.376;8.762;2022-12-07T08:43:28;5.30;99.90
23703;DHT22;12030;50.376;8.762;2022-12-07T08:46:05;5.30;99.90
23703;DHT22;12030;50.376;8.762;2022-12-07T08:48:31;5.30;99.90
23703;DHT22;12030;50.376;8.762;2022-12-07T08:50:58;5.30;99.90
23703;DHT22;12030;50.376;8.762;2022-12-07T08:53:23;5.30;99.90
23703;DHT22;12030;50.376;8.762;2022-12-07T08:55:49;5.40;99.90
23703;DHT22;12030;50.376;8.762;2022-12-07T08:58:15;5.30;99.90
23703;DHT22;12030;50.376;8.762;2022-12-07T09:00:40;5.40;99.90
23703;DHT22;12030;50.376;8.762;2022-12-07T09:03:07;5.40;99.90
23703;DHT22;12030;50.376;8.762;2022-12-07T09:05:33;5.40;99.90
23703;DHT22;12030;50.376;8.762;2022-12-07T09:08:00;5.40;99.90
23703;DHT22;12030;50.376;8.762;2022-12-07T09:10:27;5.50;99.90
23703;DHT22;12030;50.376;8.762;2022-12-07T09:12:52;5.50;99.90
23703;DHT22;12030;50.376;8.762;2022-12-07T09:15:18;5.60;99.90
23703;DHT22;12030;50.376;8.762;2022-12-07T09:17:44;5.70;99.90
23703;DHT22;12030;50.376;8.762;2022-12-07T09:20:09;5.80;99.90
23703;DHT22;12030;50.376;8.762;2022-12-07T09:22:35;5.80;99.90
23703;DHT22;12030;50.376;8.762;2022-12-07T09:25:01;5.90;99.90
23703;DHT22;12030;50.376;8.762;2022-12-07T09:27:27;6.00;99.90
23703;DHT22;12030;50.376;8.762;2022-12-07T09:29:53;6.10;99.90
23703;DHT22;12030;50.376;8.762;2022-12-07T09:32:19;6.20;99.90
23703;DHT22;12030;50.376;8.762;2022-12-07T09:34:45;6.20;99.90
23703;DHT22;12030;50.376;8.762;2022-12-07T09:37:10;6.20;99.90
23703;DHT22;12030;50.376;8.762;2022-12-07T09:39:39;6.10;99.90
23703;DHT22;12030;50.376;8.762;2022-12-07T09:42:06;6.20;99.90
23703;DHT22;12030;50.376;8.762;2022-12-07T09:44:33;6.20;99.90
23703;DHT22;12030;50.376;8.762;2022-12-07T09:46:59;6.30;99.90
23703;DHT22;12030;50.376;8.762;2022-12-07T09:49:27;6.40;99.90
23703;DHT22;12030;50.376;8.762;2022-12-07T09:52:20;6.50;99.90
23703;DHT22;12030;50.376;8.762;2022-12-07T09:54:50;6.70;99.90
23703;DHT22;12030;50.376;8.762;2022-12-07T09:57:17;6.80;99.90
23703;DHT22;12030;50.376;8.762;2022-12-07T09:59:43;6.90;99.90
23703;DHT22;12030;50.376;8.762;2022-12-07T10:02:37;6.90;99.90
23703;DHT22;12030;50.376;8.762;2022-12-07T10:05:06;6.80;99.90
23703;DHT22;12030;50.376;8.762;2022-12-07T10:07:32;6.80;99.90
23703;DHT22;12030;50.376;8.762;2022-12-07T10:09:57;6.70;99.90
23703;DHT22;12030;50.376;8.762;2022-12-07T10:12:23;6.60;99.90
23703;DHT22;12030;50.376;8.762;2022-12-07T10:15:03;6.60;99.90
23703;DHT22;12030;50.376;8.762;2022-12-07T10:17:36;6.60;99.90
23703;DHT22;12030;50.376;8.762;2022-12-07T10:20:18;6.60;99.90
23703;DHT22;12030;50.376;8.762;2022-12-07T10:23:15;6.70;99.90
23703;DHT22;12030;50.376;8.762;2022-12-07T10:25:41;6.70;99.90
23703;DHT22;12030;50.376;8.762;2022-12-07T10:30:53;6.70;99.90
23703;DHT22;12030;50.376;8.762;2022-12-07T10:33:35;6.70;99.90
23703;DHT22;12030;50.376;8.762;2022-12-07T10:36:25;6.70;99.90
23703;DHT22;12030;50.376;8.762;2022-12-07T10:39:01;6.80;99.90
23703;DHT22;12030;50.376;8.762;2022-12-07T10:41:27;6.80;99.90
23703;DHT22;12030;50.376;8.762;2022-12-07T10:43:57;6.90;99.90
23703;DHT22;12030;50.376;8.762;2022-12-07T10:46:43;6.90;99.90
23703;DHT22;12030;50.376;8.762;2022-12-07T10:49:35;6.90;99.90
23703;DHT22;12030;50.376;8.762;2022-12-07T11:01:13;7.00;99.90
23703;DHT22;12030;50.376;8.762;2022-12-07T11:06:15;7.10;99.90
23703;DHT22;12030;50.376;8.762;2022-12-07T11:08:55;7.20;99.90
23703;DHT22;12030;50.376;8.762;2022-12-07T11:11:40;7.30;99.90
23703;DHT22;12030;50.376;8.762;2022-12-07T11:14:26;7.40;99.90
23703;DHT22;12030;50.376;8.762;2022-12-07T11:19:40;7.30;99.90
23703;DHT22;12030;50.376;8.762;2022-12-07T11:28:17;7.30;99.90
23703;DHT22;12030;50.376;8.762;2022-12-07T11:36:44;7.10;99.90
23703;DHT22;12030;50.376;8.762;2022-12-07T11:39:33;7.10;99.90
23703;DHT22;12030;50.376;8.762;2022-12-07T11:42:09;7.00;99.90
23703;DHT22;12030;50.376;8.762;2022-12-07T11:44:48;6.90;99.90
23703;DHT22;12030;50.376;8.762;2022-12-07T11:47:22;6.90;99.90
23703;DHT22;12030;50.376;8.762;2022-12-07T11:49:56;6.90;99.90
23703;DHT22;12030;50.376;8.762;2022-12-07T11:52:49;6.90;99.90
23703;DHT22;12030;50.376;8.762;2022-12-07T11:55:26;7.00;99.90
23703;DHT22;12030;50.376;8.762;2022-12-07T11:58:01;7.10;99.90
23703;DHT22;12030;50.376;8.762;2022-12-07T12:00:28;7.10;99.90
23703;DHT22;12030;50.376;8.762;2022-12-07T12:03:13;7.00;99.90
23703;DHT22;12030;50.376;8.762;2022-12-07T12:05:40;6.90;99.90
23703;DHT22;12030;50.376;8.762;2022-12-07T12:08:20;6.90;99.90
23703;DHT22;12030;50.376;8.762;2022-12-07T12:11:15;6.90;99.90
23703;DHT22;12030;50.376;8.762;2022-12-07T12:16:36;6.90;99.90
23703;DHT22;12030;50.376;8.762;2022-12-07T12:19:25;6.80;99.90
23703;DHT22;12030;50.376;8.762;2022-12-07T12:22:19;6.80;99.90
23703;DHT22;12030;50.376;8.762;2022-12-07T12:24:46;6.80;99.90
23703;DHT22;12030;50.376;8.762;2022-12-07T12:27:26;6.90;99.90
23703;DHT22;12030;50.376;8.762;2022-12-07T12:29:58;6.80;99.90
23703;DHT22;12030;50.376;8.762;2022-12-07T12:32:45;6.80;99.90
23703;DHT22;12030;50.376;8.762;2022-12-07T12:40:51;6.60;99.90
23703;DHT22;12030;50.376;8.762;2022-12-07T12:43:49;6.60;99.90
23703;DHT22;12030;50.376;8.762;2022-12-07T12:46:53;6.60;99.90
23703;DHT22;12030;50.376;8.762;2022-12-07T12:54:31;6.60;99.90
23703;DHT22;12030;50.376;8.762;2022-12-07T13:02:32;6.60;99.90
23703;DHT22;12030;50.376;8.762;2022-12-07T13:04:59;6.60;99.90
23703;DHT22;12030;50.376;8.762;2022-12-07T13:15:42;6.80;99.90
23703;DHT22;12030;50.376;8.762;2022-12-07T13:26:17;6.90;99.90
23703;DHT22;12030;50.376;8.762;2022-12-07T13:28:47;6.90;99.90
23703;DHT22;12030;50.376;8.762;2022-12-07T13:33:48;6.70;99.90
23703;DHT22;12030;50.376;8.762;2022-12-07T13:36:22;6.70;99.90
23703;DHT22;12030;50.376;8.762;2022-12-07T13:38:51;6.70;99.90
23703;DHT22;12030;50.376;8.762;2022-12-07T13:41:19;6.60;99.90
23703;DHT22;12030;50.376;8.762;2022-12-07T13:43:46;6.60;99.90
23703;DHT22;12030;50.376;8.762;2022-12-07T13:46:13;6.50;99.90
23703;DHT22;12030;50.376;8.762;2022-12-07T13:48:47;6.60;99.90
23703;DHT22;12030;50.376;8.762;2022-12-07T13:51:22;6.60;99.90
23703;DHT22;12030;50.376;8.762;2022-12-07T13:53:51;6.50;99.90
23703;DHT22;12030;50.376;8.762;2022-12-07T13:56:18;6.50;99.90
23703;DHT22;12030;50.376;8.762;2022-12-07T13:58:43;6.60;99.90
23703;DHT22;12030;50.376;8.762;2022-12-07T14:01:09;6.50;99.90
23703;DHT22;12030;50.376;8.762;2022-12-07T14:03:36;6.60;99.90
23703;DHT22;12030;50.376;8.762;2022-12-07T14:06:23;6.60;99.90
23703;DHT22;12030;50.376;8.762;2022-12-07T14:09:07;6.60;99.90
23703;DHT22;12030;50.376;8.762;2022-12-07T14:11:33;6.60;99.90
23703;DHT22;12030;50.376;8.762;2022-12-07T14:14:01;6.60;99.90
23703;DHT22;12030;50.376;8.762;2022-12-07T14:16:35;6.70;99.90
23703;DHT22;12030;50.376;8.762;2022-12-07T14:19:06;6.70;99.90
23703;DHT22;12030;50.376;8.762;2022-12-07T14:22:07;6.70;99.90
23703;DHT22;12030;50.376;8.762;2022-12-07T14:24:41;6.70;99.90
23703;DHT22;12030;50.376;8.762;2022-12-07T14:27:20;6.70;99.90
23703;DHT22;12030;50.376;8.762;2022-12-07T14:29:47;6.70;99.90
23703;DHT22;12030;50.376;8.762;2022-12-07T14:32:27;6.70;99.90
23703;DHT22;12030;50.376;8.762;2022-12-07T14:37:27;6.50;99.90
23703;DHT22;12030;50.376;8.762;2022-12-07T14:39:53;6.50;99.90
23703;DHT22;12030;50.376;8.762;2022-12-07T14:42:19;6.50;99.90
23703;DHT22;12030;50.376;8.762;2022-12-07T14:44:45;6.40;99.90
23703;DHT22;12030;50.376;8.762;2022-12-07T14:47:11;6.20;99.90
23703;DHT22;12030;50.376;8.762;2022-12-07T14:49:37;6.20;99.90
23703;DHT22;12030;50.376;8.762;2022-12-07T14:52:03;6.20;99.90
23703;DHT22;12030;50.376;8.762;2022-12-07T14:54:31;6.10;99.90
23703;DHT22;12030;50.376;8.762;2022-12-07T14:56:57;6.00;99.90
23703;DHT22;12030;50.376;8.762;2022-12-07T14:59:23;6.00;99.90
23703;DHT22;12030;50.376;8.762;2022-12-07T15:01:49;5.90;99.90
23703;DHT22;12030;50.376;8.762;2022-12-07T15:04:15;6.00;99.90
23703;DHT22;12030;50.376;8.762;2022-12-07T15:06:41;6.00;99.90
23703;DHT22;12030;50.376;8.762;2022-12-07T15:09:10;5.90;99.90
23703;DHT22;12030;50.376;8.762;2022-12-07T15:11:36;5.90;99.90
23703;DHT22;12030;50.376;8.762;2022-12-07T15:14:02;5.90;99.90
23703;DHT22;12030;50.376;8.762;2022-12-07T15:16:34;5.90;99.90
23703;DHT22;12030;50.376;8.762;2022-12-07T15:19:00;5.80;99.90
23703;DHT22;12030;50.376;8.762;2022-12-07T15:21:26;5.80;99.90
23703;DHT22;12030;50.376;8.762;2022-12-07T15:23:51;5.80;99.90
23703;DHT22;12030;50.376;8.762;2022-12-07T15:26:17;5.80;99.90
23703;DHT22;12030;50.376;8.762;2022-12-07T15:28:42;5.80;99.90
23703;DHT22;12030;50.376;8.762;2022-12-07T15:31:12;5.80;99.90
23703;DHT22;12030;50.376;8.762;2022-12-07T15:33:38;5.80;99.90
23703;DHT22;12030;50.376;8.762;2022-12-07T15:36:04;5.80;99.90
23703;DHT22;12030;50.376;8.762;2022-12-07T15:38:29;5.70;99.90
23703;DHT22;12030;50.376;8.762;2022-12-07T15:40:56;5.70;99.90
23703;DHT22;12030;50.376;8.762;2022-12-07T15:43:21;5.60;99.90
23703;DHT22;12030;50.376;8.762;2022-12-07T15:46:05;5.60;99.90
23703;DHT22;12030;50.376;8.762;2022-12-07T15:48:31;5.60;99.90
23703;DHT22;12030;50.376;8.762;2022-12-07T15:51:04;5.60;99.90
23703;DHT22;12030;50.376;8.762;2022-12-07T15:53:30;5.60;99.90
23703;DHT22;12030;50.376;8.762;2022-12-07T15:55:56;5.60;99.90
23703;DHT22;12030;50.376;8.762;2022-12-07T15:58:22;5.50;99.90
23703;DHT22;12030;50.376;8.762;2022-12-07T16:00:47;5.60;99.90
23703;DHT22;12030;50.376;8.762;2022-12-07T16:03:13;5.50;99.90
23703;DHT22;12030;50.376;8.762;2022-12-07T16:05:39;5.50;99.90
23703;DHT22;12030;50.376;8.762;2022-12-07T16:08:04;5.50;99.90
23703;DHT22;12030;50.376;8.762;2022-12-07T16:10:30;5.50;99.90
23703;DHT22;12030;50.376;8.762;2022-12-07T16:12:56;5.50;99.90
23703;DHT22;12030;50.376;8.762;2022-12-07T16:15:21;5.50;99.90
23703;DHT22;12030;50.376;8.762;2022-12-07T16:17:49;5.40;99.90
23703;DHT22;12030;50.376;8.762;2022-12-07T16:20:15;5.40;99.90
23703;DHT22;12030;50.376;8.762;2022-12-07T16:22:40;5.40;99.90
23703;DHT22;12030;50.376;8.762;2022-12-07T16:25:06;5.40;99.90
23703;DHT22;12030;50.376;8.762;2022-12-07T16:27:32;5.40;99.90
23703;DHT22;12030;50.376;8.762;2022-12-07T16:29:57;5.30;99.90
23703;DHT22;12030;50.376;8.762;2022-12-07T16:32:23;5.30;99.90
23703;DHT22;12030;50.376;8.762;2022-12-07T16:34:49;5.30;99.90
23703;DHT22;12030;50.376;8.762;2022-12-07T16:37:14;5.30;99.90
23703;DHT22;12030;50.376;8.762;2022-12-07T16:39:40;5.20;99.90
23703;DHT22;12030;50.376;8.762;2022-12-07T16:42:05;5.10;99.90
23703;DHT22;12030;50.376;8.762;2022-12-07T16:44:31;5.10;99.90
23703;DHT22;12030;50.376;8.762;2022-12-07T16:46:56;5.00;99.90
23703;DHT22;12030;50.376;8.762;2022-12-07T16:49:22;5.00;99.90
23703;DHT22;12030;50.376;8.762;2022-12-07T16:51:50;5.00;99.90
23703;DHT22;12030;50.376;8.762;2022-12-07T16:54:15;4.90;99.90
23703;DHT22;12030;50.376;8.762;2022-12-07T16:56:41;4.90;99.90
23703;DHT22;12030;50.376;8.762;2022-12-07T16:59:07;4.90;99.90
23703;DHT22;12030;50.376;8.762;2022-12-07T17:01:33;4.90;99.90
23703;DHT22;12030;50.376;8.762;2022-12-07T17:03:59;4.90;99.90
23703;DHT22;12030;50.376;8.762;2022-12-07T17:06:26;4.90;99.90
23703;DHT22;12030;50.376;8.762;2022-12-07T17:08:53;4.90;99.90
23703;DHT22;12030;50.376;8.762;2022-12-07T17:11:25;4.80;99.90
23703;DHT22;12030;50.376;8.762;2022-12-07T17:13:51;4.80;99.90
23703;DHT22;12030;50.376;8.762;2022-12-07T17:16:36;4.80;99.90
23703;DHT22;12030;50.376;8.762;2022-12-07T17:19:07;4.90;99.90
23703;DHT22;12030;50.376;8.762;2022-12-07T17:21:33;4.90;99.90
23703;DHT22;12030;50.376;8.762;2022-12-07T17:24:00;4.90;99.90
23703;DHT22;12030;50.376;8.762;2022-12-07T17:26:27;4.90;99.90
23703;DHT22;12030;50.376;8.762;2022-12-07T17:28:52;4.80;99.90
23703;DHT22;12030;50.376;8.762;2022-12-07T17:31:20;4.80;99.90
23703;DHT22;12030;50.376;8.762;2022-12-07T17:33:46;4.90;99.90